createdAt,value
2019-05-10T00:01:03.438Z,15.33
2019-05-10T00:06:04.949Z,14.20
2019-05-10T00:11:06.500Z,14.87
2019-05-10T00:16:08.123Z,13.57
2019-05-10T00:21:09.555Z,13.30
2019-05-10T00:26:11.098Z,10.57
2019-05-10T00:31:12.419Z,11.77
2019-05-10T00:36:14.048Z,12.07
2019-05-10T00:41:15.553Z,11.43
2019-05-10T00:46:17.087Z,10.47
2019-05-10T00:51:18.586Z,10.57
2019-05-10T00:56:19.879Z,10.67
2019-05-10T01:01:21.263Z,11.63
2019-05-10T01:06:22.792Z,11.83
2019-05-10T01:11:24.272Z,12.13
2019-05-10T01:16:25.781Z,12.00
2019-05-10T01:21:27.301Z,12.53
2019-05-10T01:26:28.797Z,11.17
2019-05-10T01:31:30.345Z,10.80
2019-05-10T01:36:31.815Z,10.70
2019-05-10T01:41:33.403Z,11.70
2019-05-10T01:46:34.779Z,9.90
2019-05-10T01:51:36.191Z,8.90
2019-05-10T01:56:37.727Z,8.47
2019-05-10T02:01:39.094Z,7.07
2019-05-10T02:06:40.652Z,7.03
2019-05-10T02:11:42.115Z,6.73
2019-05-10T02:16:43.539Z,6.30
2019-05-10T02:21:44.952Z,6.40
2019-05-10T02:26:46.317Z,7.10
2019-05-10T02:31:47.862Z,8.73
2019-05-10T02:36:49.383Z,8.37
2019-05-10T02:41:50.858Z,7.87
2019-05-10T02:46:52.286Z,7.87
2019-05-10T02:51:53.778Z,9.27
2019-05-10T02:56:55.384Z,7.23
2019-05-10T03:01:56.927Z,8.23
2019-05-10T03:07:01.758Z,7.87
2019-05-10T03:12:35.979Z,8.23
2019-05-10T03:17:37.240Z,6.90
2019-05-10T03:22:41.758Z,5.10
2019-05-10T03:27:43.251Z,4.80
2019-05-10T03:32:44.776Z,4.10
2019-05-10T03:37:46.138Z,4.30
2019-05-10T03:42:47.725Z,4.07
2019-05-10T03:47:49.208Z,4.30
2019-05-10T03:52:52.316Z,4.47
2019-05-10T03:57:54.209Z,3.97
2019-05-10T04:02:55.726Z,3.83
2019-05-10T04:07:57.102Z,3.93
2019-05-10T04:12:58.517Z,4.73
2019-05-10T04:18:00.029Z,3.97
2019-05-10T04:23:01.461Z,4.73
2019-05-10T04:28:03.033Z,4.33
2019-05-10T04:33:04.518Z,4.17
2019-05-10T04:38:06.040Z,4.10
2019-05-10T04:43:07.576Z,4.43
2019-05-10T04:48:08.973Z,3.57
2019-05-10T04:53:10.495Z,3.70
2019-05-10T04:58:12.041Z,3.43
2019-05-10T05:03:13.570Z,2.90
2019-05-10T05:08:15.074Z,2.73
2019-05-10T05:13:17.566Z,3.40
2019-05-10T05:18:19.062Z,3.70
2019-05-10T05:23:20.624Z,3.70
2019-05-10T05:28:23.195Z,4.23
2019-05-10T05:33:25.548Z,4.27
2019-05-10T05:38:27.092Z,4.00
2019-05-10T05:43:28.628Z,4.10
2019-05-10T05:48:40.030Z,4.20
2019-05-10T05:53:35.774Z,3.73
2019-05-10T05:58:38.101Z,3.20
2019-05-10T06:03:40.556Z,3.40
2019-05-10T06:08:42.104Z,3.40
2019-05-10T06:13:43.545Z,2.97
2019-05-10T06:18:47.395Z,2.60
2019-05-10T06:23:50.311Z,3.37
2019-05-10T06:29:03.772Z,3.60
2019-05-10T06:33:55.334Z,3.80
2019-05-10T06:38:57.020Z,3.17
2019-05-10T06:43:58.476Z,2.97
2019-05-10T06:49:07.214Z,3.43
2019-05-10T06:54:03.361Z,3.23
2019-05-10T06:59:13.435Z,3.63
2019-05-10T07:04:09.664Z,3.30
2019-05-10T07:09:11.199Z,3.53
2019-05-10T07:14:12.716Z,3.30
2019-05-10T07:19:14.264Z,3.27
2019-05-10T07:24:18.319Z,2.77
2019-05-10T07:29:29.779Z,2.63
2019-05-10T07:34:22.664Z,3.30
2019-05-10T07:39:24.054Z,2.93
2019-05-10T07:44:25.621Z,2.57
2019-05-10T07:49:30.234Z,2.70
2019-05-10T07:54:30.688Z,2.90
2019-05-10T07:59:48.667Z,2.80
2019-05-10T08:04:38.294Z,3.07
2019-05-10T08:09:44.765Z,2.73
2019-05-10T08:14:44.543Z,2.67
2019-05-10T08:19:46.260Z,1.97
2019-05-10T08:24:52.904Z,2.43
2019-05-10T08:30:15.836Z,2.47
2019-05-10T08:34:56.162Z,2.03
2019-05-10T08:39:57.820Z,2.20
2019-05-10T08:45:05.309Z,2.30
2019-05-10T08:50:18.457Z,2.27
2019-05-10T08:55:06.158Z,2.30
2019-05-10T09:00:09.115Z,2.10
2019-05-10T09:05:12.435Z,2.30
2019-05-10T09:10:14.348Z,2.47
2019-05-10T09:15:15.832Z,2.40
2019-05-10T09:20:25.931Z,2.05
2019-05-10T09:25:29.313Z,2.37
2019-05-10T09:30:32.397Z,2.60
2019-05-10T09:35:33.239Z,2.27
2019-05-10T09:40:34.856Z,1.87
2019-05-10T09:45:36.419Z,2.47
2019-05-10T09:50:42.074Z,2.33
2019-05-10T09:55:45.746Z,2.20
2019-05-10T10:00:48.548Z,2.30
2019-05-10T10:05:55.218Z,1.80
2019-05-10T10:10:53.388Z,2.40
2019-05-10T10:15:54.760Z,3.00
2019-05-10T10:20:56.301Z,2.30
2019-05-10T10:25:58.105Z,2.85
2019-05-10T10:31:05.137Z,2.95
2019-05-10T10:36:07.005Z,2.70
2019-05-10T10:41:08.249Z,2.75
2019-05-10T10:46:12.538Z,2.75
2019-05-10T10:51:13.346Z,3.05
2019-05-10T10:56:17.644Z,3.00
2019-05-10T11:01:24.626Z,3.30
2019-05-10T11:06:22.686Z,3.60
2019-05-10T11:11:24.226Z,3.25
2019-05-10T11:16:25.788Z,3.52
2019-05-10T11:21:28.606Z,3.17
2019-05-10T11:26:32.766Z,3.50
2019-05-10T11:31:34.165Z,3.33
2019-05-10T11:36:35.609Z,3.17
2019-05-10T11:41:37.119Z,3.30
2019-05-10T11:46:38.658Z,3.90
2019-05-10T11:51:41.374Z,3.67
2019-05-10T11:56:43.044Z,3.90
2019-05-10T12:01:56.860Z,3.25
2019-05-10T12:06:51.403Z,3.85
2019-05-10T12:11:56.734Z,4.33
2019-05-10T12:16:56.550Z,3.60
2019-05-10T12:21:58.048Z,3.47
2019-05-10T12:27:17.248Z,3.72
2019-05-10T12:32:02.950Z,3.20
2019-05-10T12:37:08.312Z,3.52
2019-05-10T12:42:07.981Z,3.60
2019-05-10T12:47:11.328Z,3.22
2019-05-10T12:52:14.137Z,4.10
2019-05-10T12:57:18.262Z,5.42
2019-05-10T13:02:19.732Z,5.22
2019-05-10T13:07:21.244Z,5.03
2019-05-10T13:12:22.937Z,6.42
2019-05-10T13:17:24.365Z,5.67
2019-05-10T13:22:25.926Z,5.70
2019-05-10T13:27:27.381Z,5.90
2019-05-10T13:32:28.884Z,4.83
2019-05-10T13:37:30.391Z,5.62
2019-05-10T13:42:36.441Z,5.15
2019-05-10T13:47:35.354Z,5.03
2019-05-10T13:52:38.910Z,4.00
2019-05-10T13:57:40.280Z,4.62
2019-05-10T14:02:41.765Z,4.45
2019-05-10T14:07:51.051Z,4.97
2019-05-10T14:12:46.659Z,3.00
2019-05-10T14:17:48.142Z,3.25
2019-05-10T14:22:56.015Z,3.98
2019-05-10T14:27:53.111Z,4.28
2019-05-10T14:32:54.642Z,4.50
2019-05-10T14:38:07.091Z,4.87
2019-05-10T14:42:59.748Z,3.45
2019-05-10T14:48:01.396Z,3.73
2019-05-10T14:53:02.954Z,3.33
2019-05-10T14:58:04.530Z,3.77
2019-05-10T15:03:06.037Z,3.93
2019-05-10T15:08:07.569Z,3.43
2019-05-10T15:13:09.161Z,3.70
2019-05-10T15:18:10.650Z,3.37
2019-05-10T15:23:12.183Z,3.57
2019-05-10T15:28:13.735Z,3.57
2019-05-10T15:33:15.354Z,3.00
2019-05-10T15:38:16.910Z,3.10
2019-05-10T15:43:18.991Z,3.27
2019-05-10T15:48:20.870Z,3.22
2019-05-10T15:53:25.446Z,3.47
2019-05-10T15:58:30.614Z,3.42
2019-05-10T16:03:29.442Z,3.67
2019-05-10T16:08:32.010Z,3.60
2019-05-10T16:13:33.661Z,3.33
2019-05-10T16:18:40.090Z,3.20
2019-05-10T16:23:41.303Z,3.00
2019-05-10T16:28:42.142Z,2.72
2019-05-10T16:33:48.214Z,2.95
2019-05-10T16:38:47.128Z,3.00
2019-05-10T16:43:51.754Z,2.37
2019-05-10T16:48:53.105Z,2.80
2019-05-10T16:53:54.722Z,5.40
2019-05-10T16:58:59.325Z,3.22
2019-05-10T17:04:01.544Z,3.10
2019-05-10T17:09:09.370Z,3.52
2019-05-10T17:14:07.430Z,3.70
2019-05-10T17:19:08.944Z,3.83
2019-05-10T17:24:10.476Z,4.12
2019-05-10T17:29:12.493Z,4.15
2019-05-10T17:34:24.762Z,4.05
2019-05-10T17:39:18.979Z,3.22
2019-05-10T17:44:23.234Z,3.47
2019-05-10T17:49:23.862Z,4.35
2019-05-10T17:54:25.676Z,3.62
2019-05-10T17:59:27.259Z,3.50
2019-05-10T18:04:29.269Z,3.20
2019-05-10T18:09:30.793Z,3.75
2019-05-10T18:14:32.377Z,3.67
2019-05-10T18:19:33.952Z,3.70
2019-05-10T18:24:38.640Z,3.80
2019-05-10T18:29:38.808Z,4.03
2019-05-10T18:34:40.423Z,3.50
2019-05-10T18:39:47.223Z,3.90
2019-05-10T18:44:52.047Z,3.75
2019-05-10T18:49:50.189Z,3.90
2019-05-10T18:54:51.626Z,4.10
2019-05-10T18:59:53.263Z,4.15
2019-05-10T19:04:54.794Z,4.17
2019-05-10T19:09:58.339Z,4.80
2019-05-10T19:15:02.217Z,4.50
2019-05-10T19:20:03.201Z,5.17
2019-05-10T19:25:11.509Z,5.40
2019-05-10T19:30:12.518Z,5.53
2019-05-10T19:35:14.005Z,6.50
2019-05-10T19:40:15.561Z,6.20
2019-05-10T19:45:19.361Z,7.67
2019-05-10T19:50:24.309Z,7.10
2019-05-10T19:55:23.933Z,8.17
2019-05-10T20:00:25.601Z,7.70
2019-05-10T20:05:27.089Z,8.10
2019-05-10T20:10:28.632Z,8.87
2019-05-10T20:15:30.153Z,8.20
2019-05-10T20:20:31.766Z,8.30
2019-05-10T20:25:33.338Z,9.57
2019-05-10T20:30:34.921Z,8.57
2019-05-10T20:35:37.149Z,9.07
2019-05-10T20:40:38.566Z,10.20
2019-05-10T20:45:40.196Z,9.50
2019-05-10T20:50:41.760Z,10.00
2019-05-10T20:55:43.302Z,9.57
2019-05-10T21:00:44.965Z,9.77
2019-05-10T21:05:46.477Z,10.77
2019-05-10T21:10:48.006Z,11.17
2019-05-10T21:15:50.017Z,13.03
2019-05-10T21:20:51.574Z,12.87
2019-05-10T21:25:53.102Z,12.13
2019-05-10T21:30:54.743Z,11.33
2019-05-10T21:35:56.633Z,10.67
2019-05-10T21:40:58.243Z,10.07
2019-05-10T21:45:59.781Z,9.00
2019-05-10T21:51:01.342Z,8.37
2019-05-10T21:56:02.917Z,7.53
2019-05-10T22:01:04.467Z,8.23
2019-05-10T22:06:06.037Z,6.40
2019-05-10T22:11:07.628Z,6.53
2019-05-10T22:16:09.193Z,6.23
2019-05-10T22:21:11.717Z,6.10
2019-05-10T22:26:13.214Z,6.50
2019-05-10T22:31:14.779Z,6.50
2019-05-10T22:36:16.458Z,6.73
2019-05-10T22:41:17.992Z,6.40
2019-05-10T22:46:19.482Z,6.90
2019-05-10T22:51:21.037Z,6.80
2019-05-10T22:56:22.538Z,7.30
2019-05-10T23:01:24.139Z,7.80
2019-05-10T23:06:25.651Z,8.47
2019-05-10T23:11:27.500Z,7.60
2019-05-10T23:16:28.991Z,7.83
2019-05-10T23:21:30.550Z,6.93
2019-05-10T23:26:32.312Z,7.80
2019-05-10T23:31:35.611Z,7.10
2019-05-10T23:36:37.346Z,7.60
2019-05-10T23:41:38.878Z,7.17
2019-05-10T23:46:40.405Z,6.90
2019-05-10T23:51:42.254Z,6.53
2019-05-10T23:56:43.690Z,6.27
